createdAt,value
2023-03-18T00:00:10.178Z,97977.59
2023-03-18T00:02:38.829Z,97970.47
2023-03-18T00:05:09.950Z,97976.78
2023-03-18T00:07:37.428Z,97980.03
2023-03-18T00:10:10.112Z,97981.06
2023-03-18T00:12:38.888Z,97984.28
2023-03-18T00:15:11.662Z,97993.81
2023-03-18T00:17:41.346Z,97989.88
2023-03-18T00:20:10.020Z,97992.47
2023-03-18T00:22:38.059Z,97993.44
2023-03-18T00:25:07.006Z,97987.13
2023-03-18T00:27:34.864Z,97987.50
2023-03-18T00:30:01.925Z,97999.03
2023-03-18T00:32:28.973Z,97994.97
2023-03-18T00:34:56.838Z,98003.59
2023-03-18T00:37:30.860Z,98014.13
2023-03-18T00:40:05.977Z,98014.19
2023-03-18T00:42:47.447Z,98023.41
2023-03-18T00:45:17.082Z,98023.47
2023-03-18T00:47:44.333Z,98024.34
2023-03-18T00:50:11.754Z,98020.63
2023-03-18T00:52:39.507Z,98032.03
2023-03-18T00:55:06.992Z,98022.59
2023-03-18T00:57:34.692Z,98031.97
2023-03-18T01:00:02.526Z,98027.66
2023-03-18T01:02:29.618Z,98025.28
2023-03-18T01:04:57.070Z,98020.72
2023-03-18T01:07:24.295Z,98021.44
2023-03-18T01:09:50.820Z,98014.50
2023-03-18T01:12:18.070Z,98014.75
2023-03-18T01:14:44.603Z,98010.03
2023-03-18T01:17:11.423Z,98010.41
2023-03-18T01:19:38.673Z,98008.81
2023-03-18T01:22:05.613Z,98011.59
2023-03-18T01:24:37.883Z,98002.72
2023-03-18T01:27:06.194Z,97995.78
2023-03-18T01:29:33.977Z,97988.13
2023-03-18T01:32:02.718Z,97993.84
2023-03-18T01:34:29.244Z,97995.78
2023-03-18T01:36:55.763Z,97998.03
2023-03-18T01:39:25.288Z,97996.53
2023-03-18T01:41:52.000Z,97987.25
2023-03-18T01:44:27.828Z,97984.41
2023-03-18T01:46:56.824Z,97979.63
2023-03-18T01:49:42.484Z,97978.34
2023-03-18T01:52:21.568Z,97974.13
2023-03-18T01:55:06.467Z,97971.31
2023-03-18T01:57:34.514Z,97978.44
2023-03-18T02:00:04.498Z,97981.28
2023-03-18T02:02:42.376Z,97983.97
2023-03-18T02:05:11.908Z,97985.97
2023-03-18T02:07:42.739Z,97983.75
2023-03-18T02:10:14.153Z,97984.78
2023-03-18T02:12:46.293Z,97987.19
2023-03-18T02:15:22.562Z,97996.09
2023-03-18T02:17:57.708Z,97990.47
2023-03-18T02:20:36.116Z,97988.84
2023-03-18T02:23:27.650Z,97988.06
2023-03-18T02:26:03.327Z,97982.63
2023-03-18T02:28:32.699Z,97983.00
2023-03-18T02:31:04.016Z,97990.56
2023-03-18T02:33:39.209Z,97992.44
2023-03-18T02:36:29.882Z,97983.53
2023-03-18T02:39:03.390Z,97983.25
2023-03-18T02:41:33.658Z,97976.59
2023-03-18T02:44:00.796Z,97981.56
2023-03-18T02:46:45.497Z,97982.13
2023-03-18T02:49:13.192Z,97985.22
2023-03-18T02:51:41.799Z,97981.00
2023-03-18T02:54:15.975Z,97988.47
2023-03-18T02:56:44.067Z,97998.22
2023-03-18T02:59:11.974Z,97995.19
2023-03-18T03:01:41.326Z,98000.06
2023-03-18T03:04:08.647Z,97999.66
2023-03-18T03:06:36.662Z,97989.91
2023-03-18T03:09:05.245Z,97991.53
2023-03-18T03:11:33.713Z,97994.75
2023-03-18T03:14:09.485Z,97997.44
2023-03-18T03:16:37.755Z,98003.66
2023-03-18T03:19:05.945Z,98011.22
2023-03-18T03:21:35.778Z,98006.47
2023-03-18T03:24:06.685Z,98014.00
2023-03-18T03:26:34.324Z,98016.19
2023-03-18T03:29:01.578Z,98018.34
2023-03-18T03:31:28.291Z,98014.13
2023-03-18T03:33:54.869Z,98019.63
2023-03-18T03:36:21.377Z,98014.78
2023-03-18T03:38:48.276Z,98015.50
2023-03-18T03:41:15.954Z,98014.88
2023-03-18T03:43:43.190Z,98017.16
2023-03-18T03:46:10.380Z,98016.91
2023-03-18T03:48:39.335Z,98018.06
2023-03-18T03:51:10.604Z,98019.94
2023-03-18T03:53:37.140Z,98017.59
2023-03-18T03:56:04.403Z,98016.69
2023-03-18T03:58:31.040Z,98027.91
2023-03-18T04:00:58.312Z,98027.75
2023-03-18T04:03:25.563Z,98035.31
2023-03-18T04:05:52.687Z,98036.78
2023-03-18T04:08:22.606Z,98032.78
2023-03-18T04:10:50.067Z,98040.28
2023-03-18T04:13:16.607Z,98041.63
2023-03-18T04:15:43.655Z,98041.38
2023-03-18T04:18:14.804Z,98037.75
2023-03-18T04:20:41.392Z,98042.19
2023-03-18T04:23:19.364Z,98044.16
2023-03-18T04:25:46.024Z,98036.38
2023-03-18T04:28:14.175Z,98046.78
2023-03-18T04:30:40.776Z,98045.38
2023-03-18T04:33:12.880Z,98051.63
2023-03-18T04:35:42.804Z,98046.28
2023-03-18T04:38:11.921Z,98046.38
2023-03-18T04:40:38.681Z,98051.25
2023-03-18T04:43:05.534Z,98047.19
2023-03-18T04:45:34.115Z,98054.66
2023-03-18T04:48:02.063Z,98044.91
2023-03-18T04:50:33.135Z,98055.56
2023-03-18T04:53:00.515Z,98054.75
2023-03-18T04:55:29.350Z,98050.19
2023-03-18T04:57:56.819Z,98061.34
2023-03-18T05:00:25.738Z,98058.88
2023-03-18T05:03:01.966Z,98054.03
2023-03-18T05:05:28.505Z,98054.56
2023-03-18T05:07:55.076Z,98057.81
2023-03-18T05:10:23.452Z,98052.69
2023-03-18T05:12:50.603Z,98053.84
2023-03-18T05:15:25.092Z,98056.56
2023-03-18T05:17:54.796Z,98048.25
2023-03-18T05:20:21.464Z,98053.59
2023-03-18T05:22:49.043Z,98051.94
2023-03-18T05:25:26.127Z,98053.84
2023-03-18T05:27:54.369Z,98059.09
2023-03-18T05:30:31.959Z,98060.84
2023-03-18T05:32:59.272Z,98057.59
2023-03-18T05:35:43.606Z,98058.31
2023-03-18T05:38:10.274Z,98056.50
2023-03-18T05:40:37.460Z,98063.94
2023-03-18T05:43:11.506Z,98060.53
2023-03-18T05:45:45.512Z,98066.25
2023-03-18T05:48:15.308Z,98069.91
2023-03-18T05:50:50.247Z,98063.31
2023-03-18T05:53:19.973Z,98062.47
2023-03-18T05:55:50.462Z,98070.69
2023-03-18T05:58:18.326Z,98066.66
2023-03-18T06:00:46.859Z,98069.50
2023-03-18T06:03:14.015Z,98067.41
2023-03-18T06:05:40.672Z,98072.47
2023-03-18T06:08:07.919Z,98075.31
2023-03-18T06:10:36.650Z,98076.66
2023-03-18T06:13:03.184Z,98082.75
2023-03-18T06:15:30.499Z,98083.47
2023-03-18T06:17:57.523Z,98086.56
2023-03-18T06:20:24.352Z,98085.13
2023-03-18T06:22:51.606Z,98090.31
2023-03-18T06:25:20.514Z,98088.19
2023-03-18T06:27:48.350Z,98094.59
2023-03-18T06:30:17.928Z,98089.53
2023-03-18T06:32:44.818Z,98099.38
2023-03-18T06:35:12.409Z,98097.47
2023-03-18T06:37:40.098Z,98104.75
2023-03-18T06:40:09.526Z,98104.97
2023-03-18T06:42:36.561Z,98101.31
2023-03-18T06:45:25.744Z,98088.63
2023-03-18T06:47:58.419Z,98086.41
2023-03-18T06:50:25.056Z,98083.91
2023-03-18T06:52:51.947Z,98086.19
2023-03-18T06:55:25.630Z,98090.22
2023-03-18T06:57:52.728Z,98085.09
2023-03-18T07:00:24.671Z,98082.34
2023-03-18T07:02:52.395Z,98081.84
2023-03-18T07:05:23.895Z,98081.41
2023-03-18T07:07:51.030Z,98075.78
2023-03-18T07:10:22.558Z,98082.47
2023-03-18T07:12:50.453Z,98074.25
2023-03-18T07:15:21.664Z,98083.63
2023-03-18T07:17:52.368Z,98080.91
2023-03-18T07:20:19.688Z,98091.16
2023-03-18T07:22:46.973Z,98080.00
2023-03-18T07:25:14.317Z,98085.31
2023-03-18T07:27:42.207Z,98081.34
2023-03-18T07:30:09.861Z,98082.97
2023-03-18T07:32:38.358Z,98082.94
2023-03-18T07:35:06.329Z,98081.38
2023-03-18T07:37:33.480Z,98084.28
2023-03-18T07:40:00.084Z,98071.16
2023-03-18T07:42:26.848Z,98074.59
2023-03-18T07:44:53.525Z,98076.16
2023-03-18T07:47:20.859Z,98081.25
2023-03-18T07:49:47.632Z,98085.53
2023-03-18T07:52:14.453Z,98082.97
2023-03-18T07:54:41.623Z,98079.94
2023-03-18T07:57:08.214Z,98085.56
2023-03-18T07:59:34.811Z,98095.19
2023-03-18T08:02:01.449Z,98089.09
2023-03-18T08:04:28.663Z,98088.75
2023-03-18T08:06:55.478Z,98094.66
2023-03-18T08:09:22.365Z,98095.16
2023-03-18T08:11:48.829Z,98096.31
2023-03-18T08:14:15.600Z,98101.41
2023-03-18T08:16:42.175Z,98102.72
2023-03-18T08:19:08.717Z,98098.53
2023-03-18T08:21:35.518Z,98099.00
2023-03-18T08:24:02.331Z,98094.97
2023-03-18T08:26:28.889Z,98098.16
2023-03-18T08:28:55.604Z,98100.84
2023-03-18T08:31:22.475Z,98102.16
2023-03-18T08:33:49.474Z,98103.53
2023-03-18T08:36:16.116Z,98101.38
2023-03-18T08:38:43.232Z,98113.41
2023-03-18T08:41:10.081Z,98115.28
2023-03-18T08:43:38.951Z,98111.22
2023-03-18T08:46:06.534Z,98111.41
2023-03-18T08:48:33.039Z,98107.81
2023-03-18T08:50:59.633Z,98110.41
2023-03-18T08:53:26.154Z,98105.28
2023-03-18T08:55:52.753Z,98106.47
2023-03-18T08:58:19.300Z,98099.69
2023-03-18T09:00:45.752Z,98095.78
2023-03-18T09:03:13.266Z,98093.31
2023-03-18T09:05:40.215Z,98092.72
2023-03-18T09:08:06.982Z,98086.31
2023-03-18T09:10:33.572Z,98087.31
2023-03-18T09:13:00.869Z,98083.28
2023-03-18T09:15:27.571Z,98089.06
2023-03-18T09:18:10.424Z,98085.44
2023-03-18T09:20:38.850Z,98082.06
2023-03-18T09:23:05.670Z,98075.63
2023-03-18T09:25:32.855Z,98086.38
2023-03-18T09:28:00.932Z,98083.66
2023-03-18T09:30:27.999Z,98078.25
2023-03-18T09:32:54.653Z,98076.09
2023-03-18T09:35:21.163Z,98083.75
2023-03-18T09:37:48.295Z,98086.06
2023-03-18T09:40:28.343Z,98086.13
2023-03-18T09:43:29.977Z,98087.34
2023-03-18T09:46:35.315Z,98084.53
2023-03-18T09:49:09.976Z,98088.22
2023-03-18T09:51:47.385Z,98092.09
2023-03-18T09:54:22.463Z,98093.06
2023-03-18T09:56:52.710Z,98091.28
2023-03-18T09:59:35.941Z,98091.25
2023-03-18T10:02:05.894Z,98090.88
2023-03-18T10:04:44.473Z,98087.56
2023-03-18T10:07:17.536Z,98092.84
2023-03-18T10:09:55.858Z,98089.72
2023-03-18T10:12:35.286Z,98085.50
2023-03-18T10:15:19.461Z,98090.84
2023-03-18T10:18:23.747Z,98087.44
2023-03-18T10:21:18.104Z,98081.78
2023-03-18T10:24:09.517Z,98089.28
2023-03-18T10:26:50.207Z,98090.84
2023-03-18T10:29:38.530Z,98091.94
2023-03-18T10:32:48.573Z,98097.78
2023-03-18T10:35:37.847Z,98091.31
2023-03-18T10:38:27.039Z,98088.91
2023-03-18T10:40:55.212Z,98095.09
2023-03-18T10:43:29.041Z,98094.84
2023-03-18T10:46:02.484Z,98082.44
2023-03-18T10:48:39.896Z,98081.09
2023-03-18T10:51:21.701Z,98095.25
2023-03-18T10:54:13.069Z,98090.66
2023-03-18T10:56:39.773Z,98079.09
2023-03-18T10:59:16.257Z,98073.09
2023-03-18T11:01:49.825Z,98074.28
2023-03-18T11:04:21.489Z,98070.81
2023-03-18T11:07:03.048Z,98070.22
2023-03-18T11:09:39.457Z,98077.81
2023-03-18T11:12:14.088Z,98070.81
2023-03-18T11:14:42.200Z,98057.56
2023-03-18T11:17:19.664Z,98062.56
2023-03-18T11:19:48.817Z,98060.50
2023-03-18T11:22:23.000Z,98051.81
2023-03-18T11:25:11.487Z,98051.31
2023-03-18T11:27:40.988Z,98055.84
2023-03-18T11:30:24.324Z,98059.03
2023-03-18T11:33:04.048Z,98049.09
2023-03-18T11:35:40.706Z,98052.63
2023-03-18T11:38:14.647Z,98043.44
2023-03-18T11:40:41.140Z,98039.19
2023-03-18T11:43:18.786Z,98045.63
2023-03-18T11:45:48.724Z,98039.72
2023-03-18T11:48:22.481Z,98048.31
2023-03-18T11:50:57.855Z,98048.31
2023-03-18T11:53:54.348Z,98044.53
2023-03-18T11:56:34.221Z,98043.66
2023-03-18T11:59:22.643Z,98042.34
2023-03-18T12:02:16.339Z,98036.38
2023-03-18T12:05:21.263Z,98033.44
2023-03-18T12:08:00.760Z,98032.56
2023-03-18T12:10:36.187Z,98024.38
2023-03-18T12:13:08.120Z,98037.47
2023-03-18T12:15:37.651Z,98034.66
2023-03-18T12:18:34.269Z,98031.75
2023-03-18T12:21:12.244Z,98029.06
2023-03-18T12:24:02.083Z,98016.34
2023-03-18T12:26:46.504Z,98016.13
2023-03-18T12:29:37.374Z,98017.84
2023-03-18T12:32:09.645Z,98022.69
2023-03-18T12:34:50.880Z,98015.72
2023-03-18T12:37:31.194Z,98015.59
2023-03-18T12:40:17.415Z,98016.50
2023-03-18T12:43:02.421Z,98012.13
2023-03-18T12:45:39.359Z,98000.88
2023-03-18T12:48:43.748Z,97996.44
2023-03-18T12:51:18.175Z,97998.88
2023-03-18T12:53:47.539Z,98001.53
2023-03-18T12:56:18.542Z,98006.28
2023-03-18T12:58:51.179Z,98002.19
2023-03-18T13:01:25.007Z,98008.06
2023-03-18T13:03:58.833Z,98003.25
2023-03-18T13:06:41.872Z,98007.28
2023-03-18T13:09:37.073Z,98006.47
2023-03-18T13:12:14.538Z,98001.84
2023-03-18T13:14:56.418Z,98004.53
2023-03-18T13:17:38.176Z,98007.16
2023-03-18T13:20:20.502Z,98005.47
2023-03-18T13:22:59.160Z,97999.84
2023-03-18T13:25:49.426Z,98003.06
2023-03-18T13:28:25.563Z,98004.59
2023-03-18T13:31:07.029Z,98010.13
2023-03-18T13:34:26.460Z,97989.50
2023-03-18T13:37:09.975Z,97995.13
2023-03-18T13:40:03.943Z,97994.59
2023-03-18T13:42:36.113Z,97990.78
2023-03-18T13:45:22.349Z,97994.09
2023-03-18T13:48:00.529Z,97992.72
2023-03-18T13:50:33.922Z,97989.78
2023-03-18T13:53:02.867Z,97996.63
2023-03-18T13:55:42.716Z,97989.97
2023-03-18T13:58:19.426Z,97979.72
2023-03-18T14:00:55.332Z,97988.63
2023-03-18T14:03:30.460Z,97993.69
2023-03-18T14:06:09.408Z,97981.50
2023-03-18T14:08:38.770Z,97980.19
2023-03-18T14:11:17.483Z,97985.56
2023-03-18T14:13:45.201Z,97983.31
2023-03-18T14:16:23.189Z,97980.31
2023-03-18T14:19:05.699Z,97972.69
2023-03-18T14:21:34.296Z,97972.50
2023-03-18T14:24:18.099Z,97978.41
2023-03-18T14:26:49.333Z,97974.84
2023-03-18T14:29:34.699Z,97965.72
2023-03-18T14:32:08.291Z,97965.47
2023-03-18T14:35:12.873Z,97965.06
2023-03-18T14:37:58.830Z,97962.63
2023-03-18T14:40:25.614Z,97968.66
2023-03-18T14:43:30.022Z,97964.00
2023-03-18T14:46:00.098Z,97969.16
2023-03-18T14:48:32.828Z,97960.78
2023-03-18T14:51:08.134Z,97964.31
2023-03-18T14:53:39.694Z,97964.06
2023-03-18T14:56:17.588Z,97961.75
2023-03-18T14:58:47.376Z,97958.59
2023-03-18T15:01:16.091Z,97952.88
2023-03-18T15:03:46.612Z,97948.88
2023-03-18T15:06:23.109Z,97956.47
2023-03-18T15:08:58.864Z,97945.34
2023-03-18T15:11:25.557Z,97947.94
2023-03-18T15:13:56.858Z,97940.78
2023-03-18T15:16:25.200Z,97947.75
2023-03-18T15:18:54.664Z,97947.75
2023-03-18T15:21:28.868Z,97948.44
2023-03-18T15:24:00.106Z,97945.53
2023-03-18T15:26:33.936Z,97948.94
2023-03-18T15:29:17.916Z,97954.78
2023-03-18T15:31:45.139Z,97949.63
2023-03-18T15:34:22.594Z,97949.13
2023-03-18T15:36:55.429Z,97949.44
2023-03-18T15:39:28.544Z,97952.47
2023-03-18T15:41:56.917Z,97954.91
2023-03-18T15:44:30.580Z,97947.97
2023-03-18T15:47:13.507Z,97944.50
2023-03-18T15:50:02.003Z,97947.31
2023-03-18T15:52:34.551Z,97947.56
2023-03-18T15:55:02.369Z,97956.00
2023-03-18T15:57:34.943Z,97953.59
2023-03-18T16:00:01.787Z,97955.75
2023-03-18T16:02:38.592Z,97946.34
2023-03-18T16:05:16.722Z,97949.19
2023-03-18T16:07:43.223Z,97946.56
2023-03-18T16:10:10.587Z,97952.41
2023-03-18T16:12:39.552Z,97947.25
2023-03-18T16:15:07.666Z,97943.16
2023-03-18T16:17:34.141Z,97948.00
2023-03-18T16:20:02.777Z,97941.13
2023-03-18T16:22:29.287Z,97955.31
2023-03-18T16:24:55.775Z,97951.41
2023-03-18T16:27:39.999Z,97953.06
2023-03-18T16:30:16.026Z,97954.00
2023-03-18T16:32:42.867Z,97950.91
2023-03-18T16:35:15.689Z,97959.50
2023-03-18T16:37:44.523Z,97962.53
2023-03-18T16:40:24.437Z,97961.47
2023-03-18T16:42:52.556Z,97972.66
2023-03-18T16:45:23.542Z,97966.59
2023-03-18T16:47:51.859Z,97968.59
2023-03-18T16:50:19.756Z,97969.09
2023-03-18T16:52:47.349Z,97978.19
2023-03-18T16:55:18.224Z,97983.84
2023-03-18T16:57:51.466Z,97981.44
2023-03-18T17:00:31.770Z,97976.56
2023-03-18T17:02:59.512Z,97984.88
2023-03-18T17:05:26.162Z,97979.91
2023-03-18T17:07:53.170Z,97986.38
2023-03-18T17:10:22.641Z,97995.28
2023-03-18T17:13:02.313Z,97998.50
2023-03-18T17:15:31.863Z,98002.25
2023-03-18T17:17:59.625Z,98006.13
2023-03-18T17:20:28.890Z,98007.13
2023-03-18T17:22:55.853Z,98007.94
2023-03-18T17:25:24.518Z,98012.41
2023-03-18T17:27:56.107Z,98013.63
2023-03-18T17:30:34.652Z,98015.72
2023-03-18T17:33:03.451Z,98013.56
2023-03-18T17:35:30.301Z,98006.84
2023-03-18T17:37:57.115Z,98016.09
2023-03-18T17:40:28.190Z,98019.44
2023-03-18T17:42:54.808Z,98015.59
2023-03-18T17:45:32.223Z,98018.25
2023-03-18T17:48:15.417Z,98021.56
2023-03-18T17:50:44.261Z,98025.91
2023-03-18T17:53:22.662Z,98017.22
2023-03-18T17:55:51.150Z,98026.72
2023-03-18T17:58:21.702Z,98031.69
2023-03-18T18:00:48.899Z,98030.72
2023-03-18T18:03:36.585Z,98034.59
2023-03-18T18:06:03.607Z,98029.16
2023-03-18T18:08:31.572Z,98028.63
2023-03-18T18:11:04.854Z,98028.63
2023-03-18T18:13:32.800Z,98029.06
2023-03-18T18:15:59.327Z,98026.78
2023-03-18T18:18:28.959Z,98036.59
2023-03-18T18:21:04.430Z,98031.56
2023-03-18T18:23:33.588Z,98034.84
2023-03-18T18:26:04.481Z,98029.56
2023-03-18T18:28:33.533Z,98036.69
2023-03-18T18:31:01.093Z,98040.16
2023-03-18T18:33:28.103Z,98038.91
2023-03-18T18:35:54.897Z,98041.13
2023-03-18T18:38:21.379Z,98039.72
2023-03-18T18:40:49.575Z,98039.31
2023-03-18T18:43:16.010Z,98038.31
2023-03-18T18:45:42.866Z,98038.50
2023-03-18T18:48:24.256Z,98045.00
2023-03-18T18:50:51.328Z,98043.78
2023-03-18T18:53:23.031Z,98044.78
2023-03-18T18:55:50.528Z,98050.03
2023-03-18T18:58:19.053Z,98040.91
2023-03-18T19:00:51.266Z,98040.09
2023-03-18T19:03:22.873Z,98046.22
2023-03-18T19:05:51.908Z,98040.97
2023-03-18T19:08:27.662Z,98042.19
2023-03-18T19:10:59.191Z,98046.03
2023-03-18T19:13:29.418Z,98048.03
2023-03-18T19:15:59.365Z,98044.59
2023-03-18T19:18:31.302Z,98048.84
2023-03-18T19:20:58.322Z,98048.44
2023-03-18T19:23:30.293Z,98049.66
2023-03-18T19:25:58.363Z,98053.53
2023-03-18T19:28:47.849Z,98057.16
2023-03-18T19:31:20.421Z,98059.53
2023-03-18T19:33:50.602Z,98063.75
2023-03-18T19:36:31.568Z,98067.94
2023-03-18T19:39:00.189Z,98067.25
2023-03-18T19:41:27.251Z,98063.59
2023-03-18T19:43:58.191Z,98077.44
2023-03-18T19:46:55.580Z,98069.00
2023-03-18T19:49:28.478Z,98068.41
2023-03-18T19:51:55.910Z,98064.81
2023-03-18T19:54:27.339Z,98066.59
2023-03-18T19:56:55.778Z,98063.13
2023-03-18T19:59:24.778Z,98065.34
2023-03-18T20:01:51.602Z,98070.56
2023-03-18T20:04:20.013Z,98073.06
2023-03-18T20:06:53.433Z,98073.69
2023-03-18T20:09:25.034Z,98078.75
2023-03-18T20:12:04.441Z,98079.72
2023-03-18T20:14:38.091Z,98083.47
2023-03-18T20:17:28.250Z,98089.25
2023-03-18T20:19:54.876Z,98089.31
2023-03-18T20:22:34.327Z,98094.16
2023-03-18T20:25:01.955Z,98092.03
2023-03-18T20:27:29.792Z,98102.19
2023-03-18T20:29:56.736Z,98096.25
2023-03-18T20:32:23.632Z,98093.88
2023-03-18T20:34:50.715Z,98093.94
2023-03-18T20:37:34.682Z,98101.66
2023-03-18T20:40:03.768Z,98098.19
2023-03-18T20:42:30.399Z,98094.13
2023-03-18T20:44:56.844Z,98098.25
2023-03-18T20:47:23.340Z,98098.31
2023-03-18T20:49:49.845Z,98104.22
2023-03-18T20:52:27.347Z,98100.06
2023-03-18T20:54:55.152Z,98096.84
2023-03-18T20:57:21.674Z,98103.66
2023-03-18T20:59:48.665Z,98106.88
2023-03-18T21:02:32.962Z,98115.94
2023-03-18T21:05:01.588Z,98114.66
2023-03-18T21:07:28.842Z,98115.09
2023-03-18T21:09:55.426Z,98114.41
2023-03-18T21:12:22.216Z,98116.78
2023-03-18T21:14:49.724Z,98112.84
2023-03-18T21:17:21.176Z,98122.41
2023-03-18T21:19:51.822Z,98125.91
2023-03-18T21:22:24.905Z,98124.16
2023-03-18T21:24:52.253Z,98120.97
2023-03-18T21:27:27.383Z,98125.53
2023-03-18T21:29:55.521Z,98127.28
2023-03-18T21:32:31.483Z,98126.84
2023-03-18T21:34:58.802Z,98130.41
2023-03-18T21:37:27.369Z,98119.28
2023-03-18T21:39:54.253Z,98120.53
2023-03-18T21:42:27.806Z,98120.34
2023-03-18T21:44:55.963Z,98120.53
2023-03-18T21:47:25.619Z,98112.91
2023-03-18T21:49:52.270Z,98115.31
2023-03-18T21:52:27.065Z,98121.34
2023-03-18T21:54:53.567Z,98119.81
2023-03-18T21:57:22.055Z,98122.44
2023-03-18T21:59:49.828Z,98120.09
2023-03-18T22:02:33.073Z,98117.88
2023-03-18T22:05:01.699Z,98116.06
2023-03-18T22:07:29.938Z,98125.88
2023-03-18T22:09:57.243Z,98121.63
2023-03-18T22:12:29.615Z,98119.22
2023-03-18T22:14:57.063Z,98123.81
2023-03-18T22:17:31.550Z,98117.34
2023-03-18T22:19:59.957Z,98122.00
2023-03-18T22:22:29.883Z,98120.53
2023-03-18T22:24:56.637Z,98119.50
2023-03-18T22:27:28.936Z,98126.81
2023-03-18T22:29:58.063Z,98117.03
2023-03-18T22:32:33.435Z,98119.66
2023-03-18T22:35:00.224Z,98113.28
2023-03-18T22:37:27.149Z,98117.53
2023-03-18T22:39:54.044Z,98126.75
2023-03-18T22:42:23.921Z,98138.25
2023-03-18T22:44:50.380Z,98131.38
2023-03-18T22:47:19.852Z,98132.19
2023-03-18T22:49:46.757Z,98136.63
2023-03-18T22:52:31.569Z,98136.63
2023-03-18T22:55:01.046Z,98139.94
2023-03-18T22:57:28.286Z,98138.09
2023-03-18T22:59:56.598Z,98138.38
2023-03-18T23:02:26.426Z,98139.03
2023-03-18T23:04:54.841Z,98137.75
2023-03-18T23:07:32.928Z,98138.63
2023-03-18T23:10:02.639Z,98136.81
2023-03-18T23:12:30.330Z,98137.75
2023-03-18T23:14:57.229Z,98146.38
2023-03-18T23:17:27.026Z,98151.03
2023-03-18T23:19:54.606Z,98144.59
2023-03-18T23:22:34.181Z,98149.34
2023-03-18T23:25:01.121Z,98161.19
2023-03-18T23:27:28.420Z,98155.09
2023-03-18T23:29:55.782Z,98156.13
2023-03-18T23:32:24.892Z,98158.84
2023-03-18T23:34:51.667Z,98154.13
2023-03-18T23:37:18.679Z,98165.56
2023-03-18T23:39:46.359Z,98159.16
2023-03-18T23:42:18.141Z,98165.03
2023-03-18T23:44:44.864Z,98168.53
2023-03-18T23:47:12.640Z,98156.59
2023-03-18T23:49:39.254Z,98158.03
2023-03-18T23:52:09.210Z,98155.81
2023-03-18T23:54:35.889Z,98163.47
2023-03-18T23:57:03.896Z,98161.69
2023-03-18T23:59:30.866Z,98163.16
